KALM/ALM METAR and TAF weather

Enter ICAO airport designator
Station Type Date Time Source
KALM METAR 2018/10/21 06:15 UTC NOAA

KALM 210615Z AUTO 05007KT 10SM SCT080 13/07 A3036 RMK AO2


Station Type Date Time Source
KALM Decoded METAR 2018/10/21 06:15 UTC NOAA

Alamogordo-White, NM, United States (KALM) 32-50N 105-59W
Oct 21, 2018 - 02:15 AM EDT / 2018.10.21 0615 UTC
Wind: from the NE (050 degrees) at 8 MPH (7 KT):0
Visibility: 10 mile(s):0
Sky conditions: partly cloudy
Temperature: 55 F (13 C)
Dew Point: 44 F (7 C)
Relative Humidity: 66%
Pressure (altimeter): 30.36 in. Hg (1028 hPa)
ob: KALM 210615Z AUTO 05007KT 10SM SCT080 13/07 A3036 RMK AO2
cycle: 6

Station Type Date Time Source
KALM TAF UTC NOAA

Error!


Example: see airport list